sensor_id;sensor_type;location;lat;lon;timestamp;P1;durP1;ratioP1;P2;durP2;ratioP2
48006;SDS011;33771;48.180;11.400;2023-02-10T00:01:36;46.23;;;23.80;;
48006;SDS011;33771;48.180;11.400;2023-02-10T00:04:02;48.53;;;24.63;;
48006;SDS011;33771;48.180;11.400;2023-02-10T00:06:28;46.90;;;23.50;;
48006;SDS011;33771;48.180;11.400;2023-02-10T00:08:55;46.53;;;23.97;;
48006;SDS011;33771;48.180;11.400;2023-02-10T00:11:22;43.40;;;22.30;;
48006;SDS011;33771;48.180;11.400;2023-02-10T00:14:08;43.87;;;23.20;;
48006;SDS011;33771;48.180;11.400;2023-02-10T00:16:33;45.83;;;23.93;;
48006;SDS011;33771;48.180;11.400;2023-02-10T00:18:59;49.03;;;23.67;;
48006;SDS011;33771;48.180;11.400;2023-02-10T00:21:25;41.80;;;22.00;;
48006;SDS011;33771;48.180;11.400;2023-02-10T00:23:50;42.83;;;21.43;;
48006;SDS011;33771;48.180;11.400;2023-02-10T00:26:16;42.97;;;21.97;;
48006;SDS011;33771;48.180;11.400;2023-02-10T00:28:41;43.13;;;20.93;;
48006;SDS011;33771;48.180;11.400;2023-02-10T00:31:08;37.90;;;21.43;;
48006;SDS011;33771;48.180;11.400;2023-02-10T00:33:35;43.10;;;22.17;;
48006;SDS011;33771;48.180;11.400;2023-02-10T00:36:04;39.63;;;20.27;;
48006;SDS011;33771;48.180;11.400;2023-02-10T00:38:31;38.47;;;20.53;;
48006;SDS011;33771;48.180;11.400;2023-02-10T00:41:01;44.00;;;21.83;;
48006;SDS011;33771;48.180;11.400;2023-02-10T00:43:28;47.20;;;23.43;;
48006;SDS011;33771;48.180;11.400;2023-02-10T00:45:53;38.70;;;19.90;;
48006;SDS011;33771;48.180;11.400;2023-02-10T00:48:19;39.53;;;19.27;;
48006;SDS011;33771;48.180;11.400;2023-02-10T00:50:44;39.20;;;21.10;;
48006;SDS011;33771;48.180;11.400;2023-02-10T00:53:10;37.07;;;20.00;;
48006;SDS011;33771;48.180;11.400;2023-02-10T00:55:35;42.63;;;22.80;;
48006;SDS011;33771;48.180;11.400;2023-02-10T00:58:01;43.17;;;21.90;;
48006;SDS011;33771;48.180;11.400;2023-02-10T01:00:26;43.40;;;22.03;;
48006;SDS011;33771;48.180;11.400;2023-02-10T01:02:52;36.80;;;20.33;;
48006;SDS011;33771;48.180;11.400;2023-02-10T01:05:17;48.00;;;21.53;;
48006;SDS011;33771;48.180;11.400;2023-02-10T01:07:43;40.60;;;20.60;;
48006;SDS011;33771;48.180;11.400;2023-02-10T01:10:08;41.83;;;21.57;;
48006;SDS011;33771;48.180;11.400;2023-02-10T01:12:34;45.50;;;22.03;;
48006;SDS011;33771;48.180;11.400;2023-02-10T01:14:59;40.00;;;20.50;;
48006;SDS011;33771;48.180;11.400;2023-02-10T01:17:25;40.63;;;20.90;;
48006;SDS011;33771;48.180;11.400;2023-02-10T01:19:50;40.90;;;21.80;;
48006;SDS011;33771;48.180;11.400;2023-02-10T01:22:16;35.73;;;21.27;;
48006;SDS011;33771;48.180;11.400;2023-02-10T01:24:42;36.60;;;20.33;;
48006;SDS011;33771;48.180;11.400;2023-02-10T01:27:07;39.60;;;21.20;;
48006;SDS011;33771;48.180;11.400;2023-02-10T01:29:33;37.07;;;20.50;;
48006;SDS011;33771;48.180;11.400;2023-02-10T01:31:58;39.40;;;20.97;;
48006;SDS011;33771;48.180;11.400;2023-02-10T01:34:24;38.23;;;20.83;;
48006;SDS011;33771;48.180;11.400;2023-02-10T01:36:49;42.83;;;22.63;;
48006;SDS011;33771;48.180;11.400;2023-02-10T01:39:15;41.37;;;19.83;;
48006;SDS011;33771;48.180;11.400;2023-02-10T01:41:41;36.40;;;20.07;;
48006;SDS011;33771;48.180;11.400;2023-02-10T01:45:02;38.13;;;20.17;;
48006;SDS011;33771;48.180;11.400;2023-02-10T01:46:52;39.55;;;18.33;;
48006;SDS011;33771;48.180;11.400;2023-02-10T01:49:23;43.57;;;20.53;;
48006;SDS011;33771;48.180;11.400;2023-02-10T01:52:00;39.07;;;19.33;;
48006;SDS011;33771;48.180;11.400;2023-02-10T01:54:39;35.97;;;18.23;;
48006;SDS011;33771;48.180;11.400;2023-02-10T01:57:08;37.53;;;18.30;;
48006;SDS011;33771;48.180;11.400;2023-02-10T01:59:35;31.33;;;17.57;;
48006;SDS011;33771;48.180;11.400;2023-02-10T02:02:02;33.17;;;18.10;;
48006;SDS011;33771;48.180;11.400;2023-02-10T02:04:35;32.87;;;17.00;;
48006;SDS011;33771;48.180;11.400;2023-02-10T02:07:05;34.10;;;17.50;;
48006;SDS011;33771;48.180;11.400;2023-02-10T02:09:30;39.07;;;17.93;;
48006;SDS011;33771;48.180;11.400;2023-02-10T02:12:03;33.37;;;17.30;;
48006;SDS011;33771;48.180;11.400;2023-02-10T02:14:39;31.43;;;16.83;;
48006;SDS011;33771;48.180;11.400;2023-02-10T02:23:28;28.45;;;16.65;;
48006;SDS011;33771;48.180;11.400;2023-02-10T02:28:47;29.93;;;16.60;;
48006;SDS011;33771;48.180;11.400;2023-02-10T02:36:40;32.77;;;17.27;;
48006;SDS011;33771;48.180;11.400;2023-02-10T02:39:11;29.83;;;17.17;;
48006;SDS011;33771;48.180;11.400;2023-02-10T02:41:37;32.40;;;17.13;;
48006;SDS011;33771;48.180;11.400;2023-02-10T02:44:02;32.33;;;17.53;;
48006;SDS011;33771;48.180;11.400;2023-02-10T02:49:23;31.90;;;17.10;;
48006;SDS011;33771;48.180;11.400;2023-02-10T02:52:04;30.77;;;16.07;;
48006;SDS011;33771;48.180;11.400;2023-02-10T02:59:49;36.20;;;17.77;;
48006;SDS011;33771;48.180;11.400;2023-02-10T03:02:22;33.13;;;16.93;;
48006;SDS011;33771;48.180;11.400;2023-02-10T03:04:48;34.07;;;18.40;;
48006;SDS011;33771;48.180;11.400;2023-02-10T03:07:13;33.87;;;18.70;;
48006;SDS011;33771;48.180;11.400;2023-02-10T03:09:40;35.80;;;18.30;;
48006;SDS011;33771;48.180;11.400;2023-02-10T03:12:06;36.10;;;17.20;;
48006;SDS011;33771;48.180;11.400;2023-02-10T03:14:32;38.10;;;19.63;;
48006;SDS011;33771;48.180;11.400;2023-02-10T03:16:57;34.97;;;18.87;;
48006;SDS011;33771;48.180;11.400;2023-02-10T03:19:23;34.77;;;18.20;;
48006;SDS011;33771;48.180;11.400;2023-02-10T03:21:49;35.97;;;18.57;;
48006;SDS011;33771;48.180;11.400;2023-02-10T03:24:15;37.63;;;18.37;;
48006;SDS011;33771;48.180;11.400;2023-02-10T03:26:41;36.90;;;18.13;;
48006;SDS011;33771;48.180;11.400;2023-02-10T03:29:07;35.43;;;18.80;;
48006;SDS011;33771;48.180;11.400;2023-02-10T03:31:34;36.87;;;19.20;;
48006;SDS011;33771;48.180;11.400;2023-02-10T03:34:00;36.77;;;18.80;;
48006;SDS011;33771;48.180;11.400;2023-02-10T03:36:25;38.50;;;17.97;;
48006;SDS011;33771;48.180;11.400;2023-02-10T03:38:51;37.20;;;19.43;;
48006;SDS011;33771;48.180;11.400;2023-02-10T03:41:17;36.53;;;18.40;;
48006;SDS011;33771;48.180;11.400;2023-02-10T03:43:42;33.97;;;18.83;;
48006;SDS011;33771;48.180;11.400;2023-02-10T03:46:08;35.37;;;18.10;;
48006;SDS011;33771;48.180;11.400;2023-02-10T03:48:35;35.27;;;17.53;;
48006;SDS011;33771;48.180;11.400;2023-02-10T03:51:01;35.80;;;17.17;;
48006;SDS011;33771;48.180;11.400;2023-02-10T03:53:28;32.97;;;17.73;;
48006;SDS011;33771;48.180;11.400;2023-02-10T03:55:55;32.10;;;16.97;;
48006;SDS011;33771;48.180;11.400;2023-02-10T03:58:20;34.70;;;16.80;;
48006;SDS011;33771;48.180;11.400;2023-02-10T04:00:47;35.20;;;17.30;;
48006;SDS011;33771;48.180;11.400;2023-02-10T04:03:12;31.10;;;17.73;;
48006;SDS011;33771;48.180;11.400;2023-02-10T04:05:38;33.87;;;16.80;;
48006;SDS011;33771;48.180;11.400;2023-02-10T04:08:04;30.03;;;15.90;;
48006;SDS011;33771;48.180;11.400;2023-02-10T04:10:33;30.00;;;15.53;;
48006;SDS011;33771;48.180;11.400;2023-02-10T04:12:58;27.20;;;15.20;;
48006;SDS011;33771;48.180;11.400;2023-02-10T04:15:24;31.53;;;16.33;;
48006;SDS011;33771;48.180;11.400;2023-02-10T04:17:50;34.03;;;16.70;;
48006;SDS011;33771;48.180;11.400;2023-02-10T04:20:15;38.50;;;17.87;;
48006;SDS011;33771;48.180;11.400;2023-02-10T04:22:41;34.87;;;16.07;;
48006;SDS011;33771;48.180;11.400;2023-02-10T04:25:07;31.97;;;16.50;;
48006;SDS011;33771;48.180;11.400;2023-02-10T04:27:33;31.17;;;16.47;;
48006;SDS011;33771;48.180;11.400;2023-02-10T04:29:59;28.37;;;15.33;;
48006;SDS011;33771;48.180;11.400;2023-02-10T04:32:25;33.57;;;16.33;;
48006;SDS011;33771;48.180;11.400;2023-02-10T04:34:50;34.20;;;16.27;;
48006;SDS011;33771;48.180;11.400;2023-02-10T04:37:16;31.77;;;16.50;;
48006;SDS011;33771;48.180;11.400;2023-02-10T04:39:42;29.83;;;15.27;;
48006;SDS011;33771;48.180;11.400;2023-02-10T04:42:07;30.33;;;14.87;;
48006;SDS011;33771;48.180;11.400;2023-02-10T04:44:33;26.43;;;14.50;;
48006;SDS011;33771;48.180;11.400;2023-02-10T04:46:59;30.33;;;16.40;;
48006;SDS011;33771;48.180;11.400;2023-02-10T04:49:25;28.47;;;14.90;;
48006;SDS011;33771;48.180;11.400;2023-02-10T04:51:50;35.20;;;16.00;;
48006;SDS011;33771;48.180;11.400;2023-02-10T04:54:16;33.30;;;15.43;;
48006;SDS011;33771;48.180;11.400;2023-02-10T04:56:42;32.77;;;16.20;;
48006;SDS011;33771;48.180;11.400;2023-02-10T04:59:07;25.03;;;13.93;;
48006;SDS011;33771;48.180;11.400;2023-02-10T05:01:33;26.93;;;14.17;;
48006;SDS011;33771;48.180;11.400;2023-02-10T05:03:59;32.30;;;14.87;;
48006;SDS011;33771;48.180;11.400;2023-02-10T05:06:24;26.43;;;15.10;;
48006;SDS011;33771;48.180;11.400;2023-02-10T05:08:50;28.70;;;15.60;;
48006;SDS011;33771;48.180;11.400;2023-02-10T05:11:16;28.87;;;15.23;;
48006;SDS011;33771;48.180;11.400;2023-02-10T05:13:42;28.37;;;14.87;;
48006;SDS011;33771;48.180;11.400;2023-02-10T05:16:09;30.33;;;15.87;;
48006;SDS011;33771;48.180;11.400;2023-02-10T05:18:36;29.50;;;15.33;;
48006;SDS011;33771;48.180;11.400;2023-02-10T05:21:04;28.90;;;15.20;;
48006;SDS011;33771;48.180;11.400;2023-02-10T05:23:31;28.80;;;15.77;;
48006;SDS011;33771;48.180;11.400;2023-02-10T05:25:59;29.57;;;15.53;;
48006;SDS011;33771;48.180;11.400;2023-02-10T05:28:25;26.17;;;14.87;;
48006;SDS011;33771;48.180;11.400;2023-02-10T05:30:53;28.40;;;14.27;;
48006;SDS011;33771;48.180;11.400;2023-02-10T05:33:19;25.43;;;14.93;;
48006;SDS011;33771;48.180;11.400;2023-02-10T05:35:44;30.27;;;15.80;;
48006;SDS011;33771;48.180;11.400;2023-02-10T05:38:10;28.90;;;15.37;;
48006;SDS011;33771;48.180;11.400;2023-02-10T05:40:36;25.23;;;15.10;;
48006;SDS011;33771;48.180;11.400;2023-02-10T05:43:01;25.57;;;14.87;;
48006;SDS011;33771;48.180;11.400;2023-02-10T05:45:27;30.33;;;15.23;;
48006;SDS011;33771;48.180;11.400;2023-02-10T05:47:53;27.97;;;15.33;;
48006;SDS011;33771;48.180;11.400;2023-02-10T05:50:18;29.07;;;15.17;;
48006;SDS011;33771;48.180;11.400;2023-02-10T05:52:44;31.83;;;16.20;;
48006;SDS011;33771;48.180;11.400;2023-02-10T05:55:10;30.20;;;15.83;;
48006;SDS011;33771;48.180;11.400;2023-02-10T05:57:35;29.73;;;16.13;;
48006;SDS011;33771;48.180;11.400;2023-02-10T06:00:02;33.27;;;15.87;;
48006;SDS011;33771;48.180;11.400;2023-02-10T06:02:29;30.27;;;15.60;;
48006;SDS011;33771;48.180;11.400;2023-02-10T06:04:54;24.30;;;13.97;;
48006;SDS011;33771;48.180;11.400;2023-02-10T06:07:20;26.57;;;15.00;;
48006;SDS011;33771;48.180;11.400;2023-02-10T06:09:45;29.60;;;15.13;;
48006;SDS011;33771;48.180;11.400;2023-02-10T06:12:11;28.37;;;14.67;;
48006;SDS011;33771;48.180;11.400;2023-02-10T06:14:36;27.20;;;13.67;;
48006;SDS011;33771;48.180;11.400;2023-02-10T06:17:03;28.33;;;13.80;;
48006;SDS011;33771;48.180;11.400;2023-02-10T06:19:33;30.23;;;13.73;;
48006;SDS011;33771;48.180;11.400;2023-02-10T06:22:06;26.70;;;13.17;;
48006;SDS011;33771;48.180;11.400;2023-02-10T06:24:32;25.00;;;13.23;;
48006;SDS011;33771;48.180;11.400;2023-02-10T06:26:58;26.87;;;13.43;;
48006;SDS011;33771;48.180;11.400;2023-02-10T06:29:23;24.17;;;12.70;;
48006;SDS011;33771;48.180;11.400;2023-02-10T06:31:49;24.57;;;12.97;;
48006;SDS011;33771;48.180;11.400;2023-02-10T06:34:15;24.97;;;12.93;;
48006;SDS011;33771;48.180;11.400;2023-02-10T06:36:41;24.40;;;12.53;;
48006;SDS011;33771;48.180;11.400;2023-02-10T06:39:10;23.43;;;13.27;;
48006;SDS011;33771;48.180;11.400;2023-02-10T06:41:35;23.03;;;12.93;;
48006;SDS011;33771;48.180;11.400;2023-02-10T06:44:01;22.50;;;13.70;;
48006;SDS011;33771;48.180;11.400;2023-02-10T06:46:26;24.73;;;14.17;;
48006;SDS011;33771;48.180;11.400;2023-02-10T06:48:52;24.87;;;12.37;;
48006;SDS011;33771;48.180;11.400;2023-02-10T06:51:17;21.70;;;12.13;;
48006;SDS011;33771;48.180;11.400;2023-02-10T06:53:43;26.43;;;13.37;;
48006;SDS011;33771;48.180;11.400;2023-02-10T06:56:10;26.10;;;13.73;;
48006;SDS011;33771;48.180;11.400;2023-02-10T06:58:36;25.10;;;13.23;;
48006;SDS011;33771;48.180;11.400;2023-02-10T07:01:08;23.97;;;13.47;;
48006;SDS011;33771;48.180;11.400;2023-02-10T07:03:40;25.40;;;13.43;;
48006;SDS011;33771;48.180;11.400;2023-02-10T07:06:05;21.67;;;12.43;;
48006;SDS011;33771;48.180;11.400;2023-02-10T07:08:31;26.20;;;13.67;;
48006;SDS011;33771;48.180;11.400;2023-02-10T07:10:57;29.30;;;14.60;;
48006;SDS011;33771;48.180;11.400;2023-02-10T07:13:23;22.90;;;12.90;;
48006;SDS011;33771;48.180;11.400;2023-02-10T07:15:48;26.87;;;12.20;;
48006;SDS011;33771;48.180;11.400;2023-02-10T07:18:14;25.43;;;13.70;;
48006;SDS011;33771;48.180;11.400;2023-02-10T07:20:39;27.13;;;14.20;;
48006;SDS011;33771;48.180;11.400;2023-02-10T07:23:05;24.37;;;13.33;;
48006;SDS011;33771;48.180;11.400;2023-02-10T07:25:33;24.40;;;12.93;;
48006;SDS011;33771;48.180;11.400;2023-02-10T07:27:58;26.17;;;12.90;;
48006;SDS011;33771;48.180;11.400;2023-02-10T07:30:24;25.30;;;12.93;;
48006;SDS011;33771;48.180;11.400;2023-02-10T07:32:52;24.80;;;12.73;;
48006;SDS011;33771;48.180;11.400;2023-02-10T07:35:18;28.77;;;14.43;;
48006;SDS011;33771;48.180;11.400;2023-02-10T07:37:43;25.60;;;14.33;;
48006;SDS011;33771;48.180;11.400;2023-02-10T07:40:16;30.53;;;12.53;;
48006;SDS011;33771;48.180;11.400;2023-02-10T07:42:44;25.60;;;12.43;;
48006;SDS011;33771;48.180;11.400;2023-02-10T07:45:10;24.60;;;12.43;;
48006;SDS011;33771;48.180;11.400;2023-02-10T07:47:35;21.77;;;11.47;;
48006;SDS011;33771;48.180;11.400;2023-02-10T07:50:01;21.40;;;11.50;;
48006;SDS011;33771;48.180;11.400;2023-02-10T07:52:27;21.40;;;11.80;;
48006;SDS011;33771;48.180;11.400;2023-02-10T07:54:53;23.73;;;12.20;;
48006;SDS011;33771;48.180;11.400;2023-02-10T07:57:20;25.87;;;13.67;;
48006;SDS011;33771;48.180;11.400;2023-02-10T07:59:46;20.40;;;11.90;;
48006;SDS011;33771;48.180;11.400;2023-02-10T08:02:11;22.90;;;12.60;;
48006;SDS011;33771;48.180;11.400;2023-02-10T08:04:37;22.50;;;12.37;;
48006;SDS011;33771;48.180;11.400;2023-02-10T08:07:03;25.80;;;12.40;;
48006;SDS011;33771;48.180;11.400;2023-02-10T08:09:28;24.87;;;12.50;;
48006;SDS011;33771;48.180;11.400;2023-02-10T08:11:54;24.77;;;11.60;;
48006;SDS011;33771;48.180;11.400;2023-02-10T08:14:19;23.87;;;13.27;;
48006;SDS011;33771;48.180;11.400;2023-02-10T08:16:45;20.47;;;11.73;;
48006;SDS011;33771;48.180;11.400;2023-02-10T08:19:11;21.63;;;12.10;;
48006;SDS011;33771;48.180;11.400;2023-02-10T08:21:37;22.57;;;11.13;;
48006;SDS011;33771;48.180;11.400;2023-02-10T08:24:02;24.40;;;11.53;;
48006;SDS011;33771;48.180;11.400;2023-02-10T08:26:28;20.07;;;11.67;;
48006;SDS011;33771;48.180;11.400;2023-02-10T08:28:53;20.97;;;10.47;;
48006;SDS011;33771;48.180;11.400;2023-02-10T08:31:20;24.03;;;12.47;;
48006;SDS011;33771;48.180;11.400;2023-02-10T08:33:46;20.17;;;11.63;;
48006;SDS011;33771;48.180;11.400;2023-02-10T08:36:13;23.00;;;11.63;;
48006;SDS011;33771;48.180;11.400;2023-02-10T08:38:42;20.77;;;11.80;;
48006;SDS011;33771;48.180;11.400;2023-02-10T08:41:08;21.33;;;12.30;;
48006;SDS011;33771;48.180;11.400;2023-02-10T08:43:34;22.30;;;11.77;;
48006;SDS011;33771;48.180;11.400;2023-02-10T08:46:00;20.87;;;11.50;;
48006;SDS011;33771;48.180;11.400;2023-02-10T08:48:26;27.17;;;12.37;;
48006;SDS011;33771;48.180;11.400;2023-02-10T08:50:52;20.50;;;11.43;;
48006;SDS011;33771;48.180;11.400;2023-02-10T08:53:19;19.43;;;11.20;;
48006;SDS011;33771;48.180;11.400;2023-02-10T08:55:54;22.00;;;11.33;;
48006;SDS011;33771;48.180;11.400;2023-02-10T08:58:22;23.13;;;11.97;;
48006;SDS011;33771;48.180;11.400;2023-02-10T09:00:48;19.03;;;11.13;;
48006;SDS011;33771;48.180;11.400;2023-02-10T09:03:13;22.57;;;11.47;;
48006;SDS011;33771;48.180;11.400;2023-02-10T09:05:39;22.27;;;12.43;;
48006;SDS011;33771;48.180;11.400;2023-02-10T09:08:08;21.73;;;12.93;;
48006;SDS011;33771;48.180;11.400;2023-02-10T09:10:33;22.57;;;12.60;;
48006;SDS011;33771;48.180;11.400;2023-02-10T09:12:59;28.83;;;13.10;;
48006;SDS011;33771;48.180;11.400;2023-02-10T09:15:24;27.80;;;14.23;;
48006;SDS011;33771;48.180;11.400;2023-02-10T09:17:50;28.87;;;13.10;;
48006;SDS011;33771;48.180;11.400;2023-02-10T09:20:16;22.43;;;13.83;;
48006;SDS011;33771;48.180;11.400;2023-02-10T09:22:41;26.13;;;14.83;;
48006;SDS011;33771;48.180;11.400;2023-02-10T09:25:07;26.23;;;13.57;;
48006;SDS011;33771;48.180;11.400;2023-02-10T09:27:33;33.07;;;15.10;;
48006;SDS011;33771;48.180;11.400;2023-02-10T09:29:58;24.83;;;15.53;;
48006;SDS011;33771;48.180;11.400;2023-02-10T09:32:25;26.30;;;14.43;;
48006;SDS011;33771;48.180;11.400;2023-02-10T09:34:51;25.27;;;15.37;;
48006;SDS011;33771;48.180;11.400;2023-02-10T09:37:16;25.17;;;14.90;;
48006;SDS011;33771;48.180;11.400;2023-02-10T09:39:42;30.20;;;15.50;;
48006;SDS011;33771;48.180;11.400;2023-02-10T09:42:17;28.23;;;16.30;;
48006;SDS011;33771;48.180;11.400;2023-02-10T09:45:12;28.00;;;16.03;;
48006;SDS011;33771;48.180;11.400;2023-02-10T09:47:46;27.20;;;15.70;;
48006;SDS011;33771;48.180;11.400;2023-02-10T09:53:12;27.73;;;15.67;;
48006;SDS011;33771;48.180;11.400;2023-02-10T09:55:47;28.27;;;15.70;;
48006;SDS011;33771;48.180;11.400;2023-02-10T09:58:23;32.10;;;15.33;;
48006;SDS011;33771;48.180;11.400;2023-02-10T10:01:05;29.77;;;17.05;;
48006;SDS011;33771;48.180;11.400;2023-02-10T10:03:43;30.27;;;16.70;;
48006;SDS011;33771;48.180;11.400;2023-02-10T10:06:21;29.10;;;15.60;;
48006;SDS011;33771;48.180;11.400;2023-02-10T10:11:27;28.13;;;16.27;;
48006;SDS011;33771;48.180;11.400;2023-02-10T10:14:01;30.00;;;15.93;;
48006;SDS011;33771;48.180;11.400;2023-02-10T10:16:34;30.17;;;16.50;;
48006;SDS011;33771;48.180;11.400;2023-02-10T10:22:41;29.60;;;18.20;;
48006;SDS011;33771;48.180;11.400;2023-02-10T10:25:42;29.27;;;17.60;;
48006;SDS011;33771;48.180;11.400;2023-02-10T10:31:36;34.63;;;19.83;;
48006;SDS011;33771;48.180;11.400;2023-02-10T10:36:34;39.13;;;21.47;;
48006;SDS011;33771;48.180;11.400;2023-02-10T10:39:06;37.27;;;21.07;;
48006;SDS011;33771;48.180;11.400;2023-02-10T10:41:37;36.30;;;21.40;;
48006;SDS011;33771;48.180;11.400;2023-02-10T10:44:04;33.47;;;20.33;;
48006;SDS011;33771;48.180;11.400;2023-02-10T10:46:33;35.97;;;19.63;;
48006;SDS011;33771;48.180;11.400;2023-02-10T10:49:11;37.93;;;20.67;;
48006;SDS011;33771;48.180;11.400;2023-02-10T10:51:37;34.40;;;20.60;;
48006;SDS011;33771;48.180;11.400;2023-02-10T10:54:04;32.57;;;20.03;;
48006;SDS011;33771;48.180;11.400;2023-02-10T10:56:44;34.87;;;21.63;;
48006;SDS011;33771;48.180;11.400;2023-02-10T10:59:36;37.97;;;21.20;;
48006;SDS011;33771;48.180;11.400;2023-02-10T11:02:10;38.37;;;22.03;;
48006;SDS011;33771;48.180;11.400;2023-02-10T11:04:44;36.00;;;20.40;;
48006;SDS011;33771;48.180;11.400;2023-02-10T11:07:11;36.30;;;21.27;;
48006;SDS011;33771;48.180;11.400;2023-02-10T11:09:48;40.57;;;22.33;;
48006;SDS011;33771;48.180;11.400;2023-02-10T11:12:18;35.90;;;20.37;;
48006;SDS011;33771;48.180;11.400;2023-02-10T11:14:45;41.27;;;25.73;;
48006;SDS011;33771;48.180;11.400;2023-02-10T11:17:21;62.50;;;31.40;;
48006;SDS011;33771;48.180;11.400;2023-02-10T11:19:55;42.63;;;24.83;;
48006;SDS011;33771;48.180;11.400;2023-02-10T11:22:22;44.53;;;24.13;;
48006;SDS011;33771;48.180;11.400;2023-02-10T11:24:49;47.00;;;26.23;;
48006;SDS011;33771;48.180;11.400;2023-02-10T11:27:17;34.90;;;21.63;;
48006;SDS011;33771;48.180;11.400;2023-02-10T11:29:51;36.63;;;21.37;;
48006;SDS011;33771;48.180;11.400;2023-02-10T11:32:29;36.17;;;20.93;;
48006;SDS011;33771;48.180;11.400;2023-02-10T11:35:00;35.03;;;22.23;;
48006;SDS011;33771;48.180;11.400;2023-02-10T11:39:56;35.77;;;21.40;;
48006;SDS011;33771;48.180;11.400;2023-02-10T11:42:25;34.17;;;21.27;;
48006;SDS011;33771;48.180;11.400;2023-02-10T11:47:27;35.23;;;20.47;;
48006;SDS011;33771;48.180;11.400;2023-02-10T11:49:54;33.97;;;21.73;;
48006;SDS011;33771;48.180;11.400;2023-02-10T11:52:21;36.10;;;21.47;;
48006;SDS011;33771;48.180;11.400;2023-02-10T11:54:49;36.63;;;21.80;;
48006;SDS011;33771;48.180;11.400;2023-02-10T11:57:18;34.83;;;21.17;;
48006;SDS011;33771;48.180;11.400;2023-02-10T12:08:03;33.30;;;20.10;;
48006;SDS011;33771;48.180;11.400;2023-02-10T12:13:36;32.03;;;19.90;;
48006;SDS011;33771;48.180;11.400;2023-02-10T12:19:02;38.50;;;20.10;;
48006;SDS011;33771;48.180;11.400;2023-02-10T12:21:45;29.13;;;19.90;;
48006;SDS011;33771;48.180;11.400;2023-02-10T12:27:13;34.43;;;20.27;;
48006;SDS011;33771;48.180;11.400;2023-02-10T12:29:57;34.87;;;21.10;;
48006;SDS011;33771;48.180;11.400;2023-02-10T12:35:29;35.23;;;21.90;;
48006;SDS011;33771;48.180;11.400;2023-02-10T12:43:57;33.50;;;20.37;;
48006;SDS011;33771;48.180;11.400;2023-02-10T12:46:25;36.10;;;20.27;;
48006;SDS011;33771;48.180;11.400;2023-02-10T12:54:40;34.90;;;21.70;;
48006;SDS011;33771;48.180;11.400;2023-02-10T12:57:26;33.03;;;20.37;;
48006;SDS011;33771;48.180;11.400;2023-02-10T13:02:32;48.35;;;27.98;;
48006;SDS011;33771;48.180;11.400;2023-02-10T13:05:18;32.77;;;20.53;;
48006;SDS011;33771;48.180;11.400;2023-02-10T13:07:54;32.17;;;21.13;;
48006;SDS011;33771;48.180;11.400;2023-02-10T13:10:32;34.73;;;20.33;;
48006;SDS011;33771;48.180;11.400;2023-02-10T13:13:19;34.00;;;20.77;;
48006;SDS011;33771;48.180;11.400;2023-02-10T13:15:54;35.60;;;21.40;;
48006;SDS011;33771;48.180;11.400;2023-02-10T13:18:27;34.63;;;20.53;;
48006;SDS011;33771;48.180;11.400;2023-02-10T13:26:26;29.23;;;20.23;;
48006;SDS011;33771;48.180;11.400;2023-02-10T13:32:07;29.30;;;19.80;;
48006;SDS011;33771;48.180;11.400;2023-02-10T13:34:45;32.87;;;18.47;;
48006;SDS011;33771;48.180;11.400;2023-02-10T13:39:56;31.03;;;19.27;;
48006;SDS011;33771;48.180;11.400;2023-02-10T13:42:29;31.33;;;18.90;;
48006;SDS011;33771;48.180;11.400;2023-02-10T13:45:12;27.77;;;17.33;;
48006;SDS011;33771;48.180;11.400;2023-02-10T13:47:54;27.27;;;17.93;;
48006;SDS011;33771;48.180;11.400;2023-02-10T13:50:30;27.33;;;17.93;;
48006;SDS011;33771;48.180;11.400;2023-02-10T14:00:42;30.77;;;17.93;;
48006;SDS011;33771;48.180;11.400;2023-02-10T14:05:34;26.70;;;16.80;;
48006;SDS011;33771;48.180;11.400;2023-02-10T14:08:26;28.67;;;17.43;;
48006;SDS011;33771;48.180;11.400;2023-02-10T14:13:39;28.47;;;17.67;;
48006;SDS011;33771;48.180;11.400;2023-02-10T14:18:56;27.10;;;18.10;;
48006;SDS011;33771;48.180;11.400;2023-02-10T14:21:23;28.10;;;16.93;;
48006;SDS011;33771;48.180;11.400;2023-02-10T14:23:50;36.33;;;18.63;;
48006;SDS011;33771;48.180;11.400;2023-02-10T14:26:24;28.73;;;18.00;;
48006;SDS011;33771;48.180;11.400;2023-02-10T14:29:00;30.07;;;17.73;;
48006;SDS011;33771;48.180;11.400;2023-02-10T14:31:28;29.50;;;18.90;;
48006;SDS011;33771;48.180;11.400;2023-02-10T14:34:01;31.23;;;18.10;;
48006;SDS011;33771;48.180;11.400;2023-02-10T14:36:30;27.93;;;17.20;;
48006;SDS011;33771;48.180;11.400;2023-02-10T14:38:57;30.97;;;18.53;;
48006;SDS011;33771;48.180;11.400;2023-02-10T14:41:25;29.53;;;18.73;;
48006;SDS011;33771;48.180;11.400;2023-02-10T14:43:53;28.57;;;17.90;;
48006;SDS011;33771;48.180;11.400;2023-02-10T14:46:24;29.93;;;18.57;;
48006;SDS011;33771;48.180;11.400;2023-02-10T14:48:53;30.97;;;18.93;;
48006;SDS011;33771;48.180;11.400;2023-02-10T14:51:26;32.40;;;19.63;;
48006;SDS011;33771;48.180;11.400;2023-02-10T14:53:53;35.90;;;19.87;;
48006;SDS011;33771;48.180;11.400;2023-02-10T14:56:24;29.60;;;18.80;;
48006;SDS011;33771;48.180;11.400;2023-02-10T14:58:52;30.67;;;19.53;;
48006;SDS011;33771;48.180;11.400;2023-02-10T15:03:49;29.10;;;19.07;;
48006;SDS011;33771;48.180;11.400;2023-02-10T15:06:19;30.40;;;19.27;;
48006;SDS011;33771;48.180;11.400;2023-02-10T15:09:20;30.97;;;18.57;;
48006;SDS011;33771;48.180;11.400;2023-02-10T15:11:47;27.73;;;18.75;;
48006;SDS011;33771;48.180;11.400;2023-02-10T15:14:40;40.33;;;21.57;;
48006;SDS011;33771;48.180;11.400;2023-02-10T15:17:35;33.87;;;19.43;;
48006;SDS011;33771;48.180;11.400;2023-02-10T15:22:45;28.30;;;17.60;;
48006;SDS011;33771;48.180;11.400;2023-02-10T15:27:55;31.33;;;19.47;;
48006;SDS011;33771;48.180;11.400;2023-02-10T15:33:24;29.73;;;19.17;;
48006;SDS011;33771;48.180;11.400;2023-02-10T15:35:56;37.37;;;20.33;;
48006;SDS011;33771;48.180;11.400;2023-02-10T15:44:03;27.10;;;18.17;;
48006;SDS011;33771;48.180;11.400;2023-02-10T15:46:49;30.60;;;19.03;;
48006;SDS011;33771;48.180;11.400;2023-02-10T15:49:17;29.00;;;18.67;;
48006;SDS011;33771;48.180;11.400;2023-02-10T15:51:45;32.90;;;18.90;;
48006;SDS011;33771;48.180;11.400;2023-02-10T15:54:13;32.67;;;19.53;;
48006;SDS011;33771;48.180;11.400;2023-02-10T15:56:42;32.00;;;19.07;;
48006;SDS011;33771;48.180;11.400;2023-02-10T15:59:18;32.13;;;19.63;;
48006;SDS011;33771;48.180;11.400;2023-02-10T16:01:43;33.00;;;19.33;;
48006;SDS011;33771;48.180;11.400;2023-02-10T16:04:09;37.80;;;20.77;;
48006;SDS011;33771;48.180;11.400;2023-02-10T16:06:37;34.67;;;19.60;;
48006;SDS011;33771;48.180;11.400;2023-02-10T16:09:04;31.93;;;19.07;;
48006;SDS011;33771;48.180;11.400;2023-02-10T16:11:29;30.93;;;19.93;;
48006;SDS011;33771;48.180;11.400;2023-02-10T16:13:55;34.63;;;20.83;;
48006;SDS011;33771;48.180;11.400;2023-02-10T16:16:20;38.30;;;21.23;;
48006;SDS011;33771;48.180;11.400;2023-02-10T16:18:46;36.17;;;21.33;;